createdAt,value
2022-11-15T00:01:55.497Z,98074.38
2022-11-15T00:04:21.341Z,98073.69
2022-11-15T00:06:47.042Z,98065.13
2022-11-15T00:09:12.768Z,98066.16
2022-11-15T00:11:38.476Z,98067.97
2022-11-15T00:14:04.187Z,98071.44
2022-11-15T00:16:29.851Z,98067.78
2022-11-15T00:18:55.562Z,98068.41
2022-11-15T00:21:21.290Z,98064.31
2022-11-15T00:23:46.958Z,98065.50
2022-11-15T00:26:15.357Z,98067.34
2022-11-15T00:28:42.669Z,98067.72
2022-11-15T00:31:13.102Z,98067.91
2022-11-15T00:33:38.854Z,98070.13
2022-11-15T00:36:07.538Z,98076.59
2022-11-15T00:38:34.401Z,98073.97
2022-11-15T00:41:06.244Z,98062.56
2022-11-15T00:43:35.299Z,98064.75
2022-11-15T00:46:02.489Z,98065.09
2022-11-15T00:48:28.537Z,98061.84
2022-11-15T00:50:54.301Z,98057.75
2022-11-15T00:53:20.051Z,98061.38
2022-11-15T00:55:46.602Z,98057.94
2022-11-15T00:58:12.471Z,98059.31
2022-11-15T01:00:38.545Z,98058.69
2022-11-15T01:03:04.368Z,98050.94
2022-11-15T01:05:30.035Z,98052.94
2022-11-15T01:07:56.303Z,98044.38
2022-11-15T01:10:23.125Z,98046.59
2022-11-15T01:12:49.249Z,98043.47
2022-11-15T01:15:15.023Z,98046.69
2022-11-15T01:17:40.713Z,98047.69
2022-11-15T01:20:07.413Z,98046.69
2022-11-15T01:22:33.132Z,98046.03
2022-11-15T01:24:58.861Z,98044.41
2022-11-15T01:27:24.576Z,98049.06
2022-11-15T01:29:50.452Z,98040.50
2022-11-15T01:32:16.729Z,98029.47
2022-11-15T01:34:42.391Z,98032.31
2022-11-15T01:37:08.091Z,98030.88
2022-11-15T01:39:33.775Z,98030.22
2022-11-15T01:41:59.483Z,98029.56
2022-11-15T01:44:30.888Z,98026.28
2022-11-15T01:46:58.370Z,98026.47
2022-11-15T01:49:24.614Z,98028.69
2022-11-15T01:51:51.588Z,98017.66
2022-11-15T01:54:21.234Z,98021.31
2022-11-15T01:57:01.908Z,98011.56
2022-11-15T01:59:28.307Z,98005.38
2022-11-15T02:01:54.139Z,98003.75
2022-11-15T02:04:25.897Z,97999.47
2022-11-15T02:06:51.790Z,97997.00
2022-11-15T02:09:18.042Z,97993.34
2022-11-15T02:11:45.756Z,97989.91
2022-11-15T02:14:12.094Z,97990.06
2022-11-15T02:16:40.774Z,97984.97
2022-11-15T02:19:28.835Z,97983.78
2022-11-15T02:22:05.315Z,97982.13
2022-11-15T02:24:59.078Z,97976.22
2022-11-15T02:27:49.326Z,97967.66
2022-11-15T02:30:24.047Z,97960.91
2022-11-15T02:33:02.216Z,97961.75
2022-11-15T02:35:33.846Z,97956.47
2022-11-15T02:38:09.102Z,97958.91
2022-11-15T02:40:52.423Z,97958.72
2022-11-15T02:43:50.154Z,97952.63
2022-11-15T02:46:58.242Z,97955.91
2022-11-15T02:49:28.152Z,97956.53
2022-11-15T02:51:55.839Z,97953.53
2022-11-15T02:54:25.853Z,97945.00
2022-11-15T02:56:54.993Z,97942.50
2022-11-15T02:59:55.583Z,97928.22
2022-11-15T03:02:52.121Z,97926.13
2022-11-15T03:05:42.214Z,97919.97
2022-11-15T03:08:33.286Z,97920.97
2022-11-15T03:11:11.908Z,97923.78
2022-11-15T03:13:56.399Z,97916.06
2022-11-15T03:16:37.153Z,97909.47
2022-11-15T03:19:29.112Z,97910.69
2022-11-15T03:21:58.591Z,97914.88
2022-11-15T03:24:27.258Z,97915.06
2022-11-15T03:26:56.552Z,97921.63
2022-11-15T03:29:32.784Z,97913.50
2022-11-15T03:32:07.824Z,97903.56
2022-11-15T03:34:41.945Z,97905.22
2022-11-15T03:37:10.775Z,97905.59
2022-11-15T03:39:36.464Z,97894.56
2022-11-15T03:42:24.721Z,97896.78
2022-11-15T03:44:58.867Z,97905.06
2022-11-15T03:47:33.586Z,97902.59
2022-11-15T03:50:07.217Z,97891.41
2022-11-15T03:52:34.830Z,97889.97
2022-11-15T03:55:03.134Z,97887.03
2022-11-15T03:57:29.008Z,97882.94
2022-11-15T03:59:54.788Z,97889.84
2022-11-15T04:02:20.861Z,97888.84
2022-11-15T04:04:46.586Z,97890.50
2022-11-15T04:07:12.373Z,97885.03
2022-11-15T04:09:58.336Z,97885.41
2022-11-15T04:12:33.036Z,97904.06
2022-11-15T04:15:08.595Z,97898.16
2022-11-15T04:17:46.447Z,97909.88
2022-11-15T04:20:37.103Z,97898.69
2022-11-15T04:23:24.392Z,97896.44
2022-11-15T04:25:52.343Z,97899.25
2022-11-15T04:28:18.586Z,97900.78
2022-11-15T04:30:44.283Z,97892.22
2022-11-15T04:33:09.996Z,97899.31
2022-11-15T04:35:35.784Z,97892.41
2022-11-15T04:38:03.116Z,97891.22
2022-11-15T04:40:28.817Z,97900.63
2022-11-15T04:42:57.210Z,97889.25
2022-11-15T04:45:27.984Z,97892.59
2022-11-15T04:47:53.660Z,97882.41
2022-11-15T04:50:19.419Z,97886.06
2022-11-15T04:52:52.055Z,97886.69
2022-11-15T04:55:17.895Z,97882.03
2022-11-15T04:57:43.725Z,97873.50
2022-11-15T05:00:13.246Z,97865.56
2022-11-15T05:02:57.541Z,97860.31
2022-11-15T05:05:24.258Z,97855.84
2022-11-15T05:07:49.995Z,97860.03
2022-11-15T05:10:16.028Z,97850.22
2022-11-15T05:12:41.719Z,97841.03
2022-11-15T05:15:07.937Z,97838.75
2022-11-15T05:17:33.706Z,97844.00
2022-11-15T05:19:59.385Z,97841.38
2022-11-15T05:22:25.409Z,97843.00
2022-11-15T05:24:51.115Z,97843.81
2022-11-15T05:27:16.894Z,97843.00
2022-11-15T05:29:42.583Z,97837.09
2022-11-15T05:32:10.531Z,97840.09
2022-11-15T05:34:36.408Z,97849.03
2022-11-15T05:37:03.538Z,97837.66
2022-11-15T05:39:29.242Z,97843.56
2022-11-15T05:42:01.155Z,97840.09
2022-11-15T05:44:27.682Z,97847.03
2022-11-15T05:46:56.567Z,97837.28
2022-11-15T05:49:25.546Z,97836.47
2022-11-15T05:51:53.252Z,97833.38
2022-11-15T05:54:21.132Z,97838.84
2022-11-15T05:56:46.965Z,97837.00
2022-11-15T05:59:13.351Z,97831.94
2022-11-15T06:01:40.134Z,97839.84
2022-11-15T06:04:06.319Z,97837.56
2022-11-15T06:06:32.124Z,97836.94
2022-11-15T06:08:58.062Z,97839.75
2022-11-15T06:11:23.750Z,97842.03
2022-11-15T06:13:49.730Z,97840.28
2022-11-15T06:16:15.459Z,97840.38
2022-11-15T06:18:41.276Z,97840.66
2022-11-15T06:21:06.945Z,97847.75
2022-11-15T06:23:34.684Z,97846.94
2022-11-15T06:26:00.864Z,97849.78
2022-11-15T06:28:33.408Z,97849.94
2022-11-15T06:31:06.490Z,97851.59
2022-11-15T06:33:32.667Z,97852.22
2022-11-15T06:36:03.506Z,97850.03
2022-11-15T06:38:29.355Z,97850.66
2022-11-15T06:40:55.167Z,97844.66
2022-11-15T06:43:20.884Z,97849.38
2022-11-15T06:45:46.559Z,97846.22
2022-11-15T06:48:12.285Z,97851.31
2022-11-15T06:50:38.030Z,97857.03
2022-11-15T06:53:04.210Z,97857.28
2022-11-15T06:55:30.206Z,97856.09
2022-11-15T06:57:55.944Z,97856.91
2022-11-15T07:00:22.854Z,97853.91
2022-11-15T07:02:48.954Z,97858.81
2022-11-15T07:05:16.318Z,97854.16
2022-11-15T07:07:42.093Z,97852.44
2022-11-15T07:10:08.350Z,97848.44
2022-11-15T07:12:34.315Z,97851.13
2022-11-15T07:15:00.139Z,97842.84
2022-11-15T07:17:25.994Z,97844.47
2022-11-15T07:19:51.702Z,97830.72
2022-11-15T07:22:17.395Z,97830.59
2022-11-15T07:24:43.167Z,97824.19
2022-11-15T07:27:08.999Z,97829.63
2022-11-15T07:29:34.794Z,97830.72
2022-11-15T07:32:00.685Z,97840.41
2022-11-15T07:34:26.405Z,97835.63
2022-11-15T07:36:52.091Z,97831.66
2022-11-15T07:39:17.786Z,97824.38
2022-11-15T07:41:43.800Z,97829.97
2022-11-15T07:44:09.507Z,97826.97
2022-11-15T07:46:35.510Z,97821.31
2022-11-15T07:49:01.238Z,97818.53
2022-11-15T07:51:26.932Z,97824.47
2022-11-15T07:53:52.783Z,97821.53
2022-11-15T07:56:18.750Z,97820.34
2022-11-15T07:58:46.098Z,97822.59
2022-11-15T08:01:12.924Z,97816.97
2022-11-15T08:03:38.852Z,97824.53
2022-11-15T08:06:04.855Z,97823.97
2022-11-15T08:08:30.524Z,97815.63
2022-11-15T08:10:58.250Z,97813.59
2022-11-15T08:13:24.030Z,97810.97
2022-11-15T08:15:53.519Z,97814.03
2022-11-15T08:18:23.188Z,97812.66
2022-11-15T08:20:48.923Z,97813.66
2022-11-15T08:23:14.692Z,97814.91
2022-11-15T08:25:40.407Z,97806.53
2022-11-15T08:28:08.008Z,97809.41
2022-11-15T08:30:42.281Z,97797.75
2022-11-15T08:33:11.116Z,97796.28
2022-11-15T08:35:36.856Z,97801.19
2022-11-15T08:38:02.582Z,97796.84
2022-11-15T08:40:28.284Z,97787.06
2022-11-15T08:42:54.143Z,97794.16
2022-11-15T08:45:20.286Z,97793.69
2022-11-15T08:47:49.799Z,97787.53
2022-11-15T08:50:18.602Z,97786.25
2022-11-15T08:52:44.401Z,97788.69
2022-11-15T08:55:10.178Z,97783.91
2022-11-15T08:57:35.865Z,97784.88
2022-11-15T09:00:01.757Z,97785.44
2022-11-15T09:02:27.497Z,97789.69
2022-11-15T09:04:53.181Z,97784.91
2022-11-15T09:07:19.065Z,97787.47
2022-11-15T09:09:44.865Z,97787.00
2022-11-15T09:12:10.535Z,97779.56
2022-11-15T09:14:36.335Z,97781.53
2022-11-15T09:17:02.085Z,97780.78
2022-11-15T09:19:27.801Z,97771.28
2022-11-15T09:21:53.573Z,97768.91
2022-11-15T09:24:19.239Z,97762.25
2022-11-15T09:26:45.122Z,97767.09
2022-11-15T09:29:10.927Z,97765.28
2022-11-15T09:31:36.642Z,97761.91
2022-11-15T09:34:02.636Z,97763.22
2022-11-15T09:36:28.688Z,97761.94
2022-11-15T09:38:54.436Z,97757.41
2022-11-15T09:41:41.606Z,97752.66
2022-11-15T09:44:25.561Z,97743.97
2022-11-15T09:47:39.721Z,97743.06
2022-11-15T09:50:12.837Z,97745.19
2022-11-15T09:52:43.399Z,97735.84
2022-11-15T09:55:11.176Z,97738.75
2022-11-15T09:57:50.947Z,97741.09
2022-11-15T10:00:45.315Z,97730.31
2022-11-15T10:03:23.006Z,97728.94
2022-11-15T10:05:52.399Z,97723.88
2022-11-15T10:08:43.254Z,97714.47
2022-11-15T10:14:17.303Z,97711.78
2022-11-15T10:17:20.235Z,97703.78
2022-11-15T10:19:54.990Z,97702.16
2022-11-15T10:22:27.200Z,97700.03
2022-11-15T10:25:20.961Z,97697.56
2022-11-15T10:28:38.043Z,97683.66
2022-11-15T10:31:20.604Z,97676.63
2022-11-15T10:33:46.707Z,97670.19
2022-11-15T10:36:12.458Z,97662.59
2022-11-15T10:38:50.455Z,97668.69
2022-11-15T10:41:23.406Z,97668.06
2022-11-15T10:44:07.510Z,97659.41
2022-11-15T10:46:46.631Z,97656.09
2022-11-15T10:49:15.266Z,97652.75
2022-11-15T10:51:46.633Z,97649.22
2022-11-15T10:54:19.974Z,97648.06
2022-11-15T10:56:52.996Z,97638.78
2022-11-15T10:59:26.550Z,97638.31
2022-11-15T11:01:52.282Z,97633.34
2022-11-15T11:04:19.494Z,97628.50
2022-11-15T11:06:50.040Z,97631.28
2022-11-15T11:09:30.631Z,97628.19
2022-11-15T11:11:57.097Z,97632.56
2022-11-15T11:14:26.777Z,97618.72
2022-11-15T11:17:07.291Z,97617.41
2022-11-15T11:19:40.561Z,97612.97
2022-11-15T11:22:22.534Z,97608.78
2022-11-15T11:25:17.070Z,97609.44
2022-11-15T11:28:05.929Z,97602.59
2022-11-15T11:30:56.010Z,97609.91
2022-11-15T11:33:32.235Z,97604.66
2022-11-15T11:36:21.600Z,97601.25
2022-11-15T11:38:58.348Z,97598.91
2022-11-15T11:41:32.899Z,97590.13
2022-11-15T11:44:35.777Z,97584.81
2022-11-15T11:47:12.089Z,97570.34
2022-11-15T11:49:50.581Z,97572.50
2022-11-15T11:52:28.697Z,97572.53
2022-11-15T11:55:06.384Z,97572.63
2022-11-15T11:57:49.093Z,97565.66
2022-11-15T12:00:23.502Z,97557.38
2022-11-15T12:03:08.138Z,97550.69
2022-11-15T12:05:54.506Z,97553.91
2022-11-15T12:08:41.352Z,97548.53
2022-11-15T12:11:18.106Z,97547.47
2022-11-15T12:13:46.600Z,97549.41
2022-11-15T12:16:22.180Z,97542.44
2022-11-15T12:18:53.704Z,97548.09
2022-11-15T12:21:35.845Z,97545.44
2022-11-15T12:24:42.813Z,97545.19
2022-11-15T12:27:33.470Z,97537.09
2022-11-15T12:30:08.355Z,97538.69
2022-11-15T12:32:37.808Z,97542.19
2022-11-15T12:35:06.727Z,97538.69
2022-11-15T12:37:38.429Z,97533.59
2022-11-15T12:40:10.755Z,97531.44
2022-11-15T12:42:42.266Z,97529.56
2022-11-15T12:45:31.468Z,97529.84
2022-11-15T12:48:17.317Z,97521.84
2022-11-15T12:50:55.060Z,97523.47
2022-11-15T12:53:23.695Z,97521.34
2022-11-15T12:56:16.980Z,97507.38
2022-11-15T12:58:43.330Z,97518.66
2022-11-15T13:01:10.847Z,97510.31
2022-11-15T13:04:15.149Z,97514.91
2022-11-15T13:06:44.211Z,97516.78
2022-11-15T13:09:28.447Z,97511.66
2022-11-15T13:11:55.256Z,97514.09
2022-11-15T13:14:50.541Z,97511.13
2022-11-15T13:17:19.499Z,97517.03
2022-11-15T13:19:54.134Z,97509.22
2022-11-15T13:22:38.437Z,97512.13
2022-11-15T13:25:15.007Z,97504.88
2022-11-15T13:27:40.971Z,97503.50
2022-11-15T13:30:16.078Z,97495.72
2022-11-15T13:32:42.113Z,97489.53
2022-11-15T13:35:07.951Z,97490.63
2022-11-15T13:37:34.598Z,97482.84
2022-11-15T13:40:30.653Z,97473.97
2022-11-15T13:42:58.088Z,97471.59
2022-11-15T13:45:24.848Z,97467.25
2022-11-15T13:47:58.609Z,97471.59
2022-11-15T13:50:33.235Z,97465.94
2022-11-15T13:53:03.184Z,97465.16
2022-11-15T13:55:32.957Z,97454.66
2022-11-15T13:58:06.073Z,97465.66
2022-11-15T14:00:45.652Z,97453.53
2022-11-15T14:03:38.890Z,97464.22
2022-11-15T14:06:07.883Z,97459.91
2022-11-15T14:08:35.448Z,97457.75
2022-11-15T14:11:08.473Z,97451.81
2022-11-15T14:13:34.281Z,97459.84
2022-11-15T14:16:19.090Z,97459.50
2022-11-15T14:18:48.889Z,97467.25
2022-11-15T14:21:14.637Z,97467.66
2022-11-15T14:23:40.597Z,97456.06
2022-11-15T14:26:11.476Z,97457.06
2022-11-15T14:28:40.484Z,97448.13
2022-11-15T14:31:13.069Z,97447.22
2022-11-15T14:33:39.628Z,97442.59
2022-11-15T14:36:17.452Z,97439.59
2022-11-15T14:38:43.344Z,97443.53
2022-11-15T14:41:20.206Z,97438.66
2022-11-15T14:43:46.229Z,97442.09
2022-11-15T14:46:11.911Z,97436.38
2022-11-15T14:48:37.689Z,97432.28
2022-11-15T14:51:03.492Z,97431.44
2022-11-15T14:53:29.277Z,97432.97
2022-11-15T14:55:55.001Z,97432.00
2022-11-15T14:58:20.691Z,97424.41
2022-11-15T15:00:46.555Z,97421.38
2022-11-15T15:03:12.310Z,97415.41
2022-11-15T15:05:43.228Z,97408.06
2022-11-15T15:08:10.137Z,97403.94
2022-11-15T15:10:40.618Z,97401.72
2022-11-15T15:13:16.918Z,97394.63
2022-11-15T15:15:42.771Z,97388.91
2022-11-15T15:18:08.795Z,97389.84
2022-11-15T15:20:39.873Z,97387.25
2022-11-15T15:23:06.310Z,97382.84
2022-11-15T15:25:35.760Z,97378.94
2022-11-15T15:28:02.461Z,97380.19
2022-11-15T15:30:29.894Z,97385.38
2022-11-15T15:32:55.953Z,97383.88
2022-11-15T15:35:21.919Z,97382.69
2022-11-15T15:37:48.885Z,97386.47
2022-11-15T15:40:20.758Z,97386.56
2022-11-15T15:42:47.316Z,97380.72
2022-11-15T15:45:13.836Z,97384.03
2022-11-15T15:47:39.753Z,97378.03
2022-11-15T15:50:22.556Z,97371.44
2022-11-15T15:52:49.707Z,97372.16
2022-11-15T15:55:15.607Z,97375.91
2022-11-15T15:57:41.350Z,97376.38
2022-11-15T16:00:08.084Z,97370.72
2022-11-15T16:02:37.705Z,97380.56
2022-11-15T16:05:07.240Z,97374.75
2022-11-15T16:07:32.977Z,97373.94
2022-11-15T16:10:01.492Z,97375.81
2022-11-15T16:12:31.622Z,97374.44
2022-11-15T16:14:57.926Z,97361.78
2022-11-15T16:17:34.079Z,97361.44
2022-11-15T16:20:00.259Z,97374.22
2022-11-15T16:22:26.009Z,97374.47
2022-11-15T16:24:51.749Z,97374.47
2022-11-15T16:27:20.023Z,97384.88
2022-11-15T16:29:46.542Z,97376.09
2022-11-15T16:32:12.919Z,97370.75
2022-11-15T16:34:41.899Z,97362.41
2022-11-15T16:37:22.838Z,97359.97
2022-11-15T16:39:48.715Z,97362.88
2022-11-15T16:42:14.690Z,97365.78
2022-11-15T16:44:40.421Z,97365.56
2022-11-15T16:47:16.620Z,97365.56
2022-11-15T16:49:43.494Z,97364.75
2022-11-15T16:52:09.199Z,97362.31
2022-11-15T16:54:34.934Z,97356.91
2022-11-15T16:57:00.631Z,97357.34
2022-11-15T16:59:26.357Z,97357.25
2022-11-15T17:01:52.311Z,97347.88
2022-11-15T17:04:18.874Z,97345.91
2022-11-15T17:06:46.860Z,97332.72
2022-11-15T17:09:15.257Z,97330.66
2022-11-15T17:11:41.760Z,97328.03
2022-11-15T17:14:07.834Z,97324.63
2022-11-15T17:16:35.185Z,97324.31
2022-11-15T17:19:01.080Z,97325.00
2022-11-15T17:21:31.063Z,97326.06
2022-11-15T17:23:59.272Z,97318.53
2022-11-15T17:26:30.334Z,97312.88
2022-11-15T17:29:00.173Z,97303.84
2022-11-15T17:31:26.335Z,97300.13
2022-11-15T17:33:52.543Z,97292.38
2022-11-15T17:36:18.491Z,97290.19
2022-11-15T17:38:49.535Z,97283.81
2022-11-15T17:41:16.095Z,97289.13
2022-11-15T17:43:42.532Z,97286.81
2022-11-15T17:46:11.691Z,97282.84
2022-11-15T17:48:37.656Z,97285.84
2022-11-15T17:51:05.925Z,97288.03
2022-11-15T17:53:37.267Z,97285.94
2022-11-15T17:56:04.869Z,97287.81
2022-11-15T17:58:34.705Z,97284.91
2022-11-15T18:01:27.095Z,97276.34
2022-11-15T18:03:53.871Z,97275.75
2022-11-15T18:06:21.318Z,97277.84
2022-11-15T18:08:48.956Z,97276.25
2022-11-15T18:11:21.104Z,97275.66
2022-11-15T18:13:52.597Z,97269.78
2022-11-15T18:16:21.154Z,97268.47
2022-11-15T18:18:47.524Z,97259.91
2022-11-15T18:21:16.019Z,97261.22
2022-11-15T18:23:42.782Z,97260.63
2022-11-15T18:26:13.425Z,97256.34
2022-11-15T18:28:42.066Z,97263.53
2022-11-15T18:31:20.371Z,97265.97
2022-11-15T18:33:47.659Z,97253.69
2022-11-15T18:36:16.637Z,97251.59
2022-11-15T18:38:42.898Z,97252.88
2022-11-15T18:41:23.717Z,97245.56
2022-11-15T18:43:49.604Z,97249.19
2022-11-15T18:46:18.066Z,97245.94
2022-11-15T18:48:45.811Z,97251.28
2022-11-15T18:51:13.743Z,97251.03
2022-11-15T18:53:40.520Z,97250.22
2022-11-15T18:56:08.792Z,97242.81
2022-11-15T18:58:40.654Z,97237.47
2022-11-15T19:01:14.810Z,97239.56
2022-11-15T19:03:43.432Z,97241.66
2022-11-15T19:06:11.940Z,97232.63
2022-11-15T19:08:38.808Z,97234.00
2022-11-15T19:11:30.197Z,97237.47
2022-11-15T19:14:02.473Z,97234.25
2022-11-15T19:16:29.712Z,97229.41
2022-11-15T19:18:57.325Z,97231.72
2022-11-15T19:21:24.848Z,97225.50
2022-11-15T19:23:52.160Z,97226.63
2022-11-15T19:26:18.044Z,97227.00
2022-11-15T19:28:43.885Z,97226.91
2022-11-15T19:31:13.713Z,97227.38
2022-11-15T19:33:40.847Z,97219.88
2022-11-15T19:36:13.544Z,97222.97
2022-11-15T19:38:39.878Z,97220.78
2022-11-15T19:41:07.843Z,97226.31
2022-11-15T19:43:34.349Z,97219.38
2022-11-15T19:46:02.749Z,97219.84
2022-11-15T19:48:33.506Z,97226.47
2022-11-15T19:51:07.298Z,97209.34
2022-11-15T19:53:35.412Z,97212.91
2022-11-15T19:56:04.749Z,97214.66
2022-11-15T19:58:31.242Z,97215.69
2022-11-15T20:01:11.420Z,97210.94
2022-11-15T20:03:38.185Z,97210.25
2022-11-15T20:06:06.597Z,97212.69
2022-11-15T20:08:33.920Z,97205.53
2022-11-15T20:11:00.385Z,97213.72
2022-11-15T20:13:27.014Z,97212.91
2022-11-15T20:15:53.616Z,97201.44
2022-11-15T20:18:20.765Z,97203.53
2022-11-15T20:20:47.059Z,97203.53
2022-11-15T20:23:12.981Z,97200.06
2022-11-15T20:25:39.445Z,97205.84
2022-11-15T20:28:06.395Z,97206.56
2022-11-15T20:30:35.043Z,97207.84
2022-11-15T20:33:00.785Z,97206.56
2022-11-15T20:35:26.483Z,97203.44
2022-11-15T20:37:52.195Z,97205.28
2022-11-15T20:40:17.916Z,97204.81
2022-11-15T20:42:43.951Z,97202.28
2022-11-15T20:45:09.738Z,97199.03
2022-11-15T20:47:35.700Z,97191.19
2022-11-15T20:50:20.748Z,97183.44
2022-11-15T20:52:47.105Z,97179.25
2022-11-15T20:55:12.834Z,97176.25
2022-11-15T20:57:38.711Z,97177.88
2022-11-15T21:00:08.623Z,97169.66
2022-11-15T21:02:34.341Z,97168.03
2022-11-15T21:05:00.052Z,97170.47
2022-11-15T21:07:26.058Z,97173.34
2022-11-15T21:10:10.402Z,97178.91
2022-11-15T21:12:36.121Z,97177.06
2022-11-15T21:15:01.927Z,97172.78
2022-11-15T21:17:28.203Z,97169.78
2022-11-15T21:19:53.958Z,97164.94
2022-11-15T21:22:19.646Z,97161.13
2022-11-15T21:24:45.358Z,97153.38
2022-11-15T21:27:11.411Z,97144.91
2022-11-15T21:29:37.361Z,97145.59
2022-11-15T21:32:07.086Z,97140.75
2022-11-15T21:34:33.828Z,97140.41
2022-11-15T21:36:59.549Z,97135.91
2022-11-15T21:39:25.342Z,97136.13
2022-11-15T21:41:51.027Z,97131.28
2022-11-15T21:44:16.809Z,97119.91
2022-11-15T21:46:42.568Z,97124.06
2022-11-15T21:49:08.682Z,97122.13
2022-11-15T21:51:34.512Z,97120.13
2022-11-15T21:54:00.849Z,97115.69
2022-11-15T21:56:27.911Z,97121.47
2022-11-15T21:58:54.952Z,97113.97
2022-11-15T22:01:41.024Z,97107.72
2022-11-15T22:04:06.764Z,97103.56
2022-11-15T22:06:33.296Z,97101.78
2022-11-15T22:09:00.197Z,97105.94
2022-11-15T22:11:26.069Z,97098.88
2022-11-15T22:13:51.919Z,97104.66
2022-11-15T22:16:17.619Z,97096.56
2022-11-15T22:18:43.489Z,97096.97
2022-11-15T22:21:14.703Z,97094.44
2022-11-15T22:23:41.271Z,97095.56
2022-11-15T22:26:09.224Z,97094.03
2022-11-15T22:28:35.408Z,97091.44
2022-11-15T22:31:01.535Z,97087.63
2022-11-15T22:33:29.227Z,97077.69
2022-11-15T22:35:55.492Z,97076.16
2022-11-15T22:38:22.023Z,97074.97
2022-11-15T22:40:48.204Z,97073.81
2022-11-15T22:43:16.703Z,97073.66
2022-11-15T22:45:48.866Z,97065.13
2022-11-15T22:48:15.383Z,97065.81
2022-11-15T22:50:42.638Z,97057.03
2022-11-15T22:53:08.359Z,97055.88
2022-11-15T22:55:34.096Z,97042.22
2022-11-15T22:57:59.862Z,97037.00
2022-11-15T23:00:25.590Z,97052.56
2022-11-15T23:02:54.217Z,97038.94
2022-11-15T23:05:20.142Z,97046.88
2022-11-15T23:07:46.176Z,97036.28
2022-11-15T23:10:30.674Z,97021.28
2022-11-15T23:13:15.514Z,97033.63
2022-11-15T23:16:07.036Z,97031.66
2022-11-15T23:18:38.139Z,97017.38
2022-11-15T23:21:11.184Z,97020.81
2022-11-15T23:23:37.081Z,97015.88
2022-11-15T23:26:03.764Z,97013.81
2022-11-15T23:28:31.999Z,97009.09
2022-11-15T23:31:26.374Z,97010.28
2022-11-15T23:33:58.288Z,97007.00
2022-11-15T23:36:26.000Z,97011.03
2022-11-15T23:38:52.662Z,97008.16
2022-11-15T23:41:18.589Z,97009.78
2022-11-15T23:43:44.325Z,97010.81
2022-11-15T23:46:10.062Z,97012.88
2022-11-15T23:48:36.168Z,97011.47
2022-11-15T23:51:01.997Z,97009.25
2022-11-15T23:53:27.719Z,97003.34
2022-11-15T23:56:09.342Z,96999.53
2022-11-15T23:58:35.426Z,96998.38
